Jack Brusco — WDC3066 — position and weather

sailwx.info

Track history (hours):
 
Tides and Currents Weather Stations Pressure Air Temp Water Temp Dewpoint Dewpoint Depression Visibility Wind Speed Wind Dir Waves Ship Positions

Jack Brusco

Owner: Brusco Tug & Barge, Inc., Longview, WA. More information available from US FCC via Universal Licensing System and Coast Guard Vessel Documentation Center.

Last reported at 2017-Aug-11 16:34 UTC. Time now 2017-Sep-21 17:45 UTC.
Position N 46°12' W 123°23'.
Warning: this ship's position is 41 days out of date.

Length 36 m; draft 5.2 m.

Type: Tug. MMSI: 3699086.

Date/timePositionNaut miles runAvg speedWind from/ knotsBaromVisibWave heightAir tempDewpointWater temp
2017-Aug-11 16:34N 46°12' W 123°23'0 0.0
2017-Aug-11 16:30N 46°12' W 123°23'0 0.1
2017-Aug-11 16:01N 46°12' W 123°23'  
2017-Aug-02 21:46N 46°12' W 123°23'0 0.0
2017-Aug-02 21:31N 46°12' W 123°23'0 0.0
2017-Aug-02 21:01N 46°12' W 123°23'0 0.0
2017-Aug-02 20:31N 46°12' W 123°23'0 0.1
2017-Aug-02 20:01N 46°12' W 123°23'0 0.0
2017-Aug-02 19:30N 46°12' W 123°23'0 0.1
2017-Aug-02 19:00N 46°12' W 123°23'0 0.0
2017-Aug-02 18:30N 46°12' W 123°23'1 2.4
2017-Aug-02 18:01N 46°13' W 123°25'4 8.1
2017-Aug-02 17:30N 46°16' W 123°28'510.0
2017-Aug-02 17:01N 46°15' W 123°35'5 9.3
2017-Aug-02 16:31N 46°15' W 123°42'510.4
2017-Aug-02 16:01N 46°12' W 123°49'5 9.3
2017-Aug-02 15:30N 46°12' W 123°55'510.9
2017-Aug-02 15:01N 46°15' W 124°01'8 7.8
2017-Aug-02 14:01N 46°11' W 124°11'3 5.8
2017-Aug-02 13:31N 46°08' W 124°10'5 9.1
2017-Aug-02 13:01N 46°04' W 124°09'5 9.2
2017-Aug-02 12:31N 45°59' W 124°08'4 8.5
2017-Aug-02 12:01N 45°55' W 124°06'4 8.2
2017-Aug-02 11:31N 45°51' W 124°06'4 8.0
2017-Aug-02 11:00N 45°47' W 124°05'4 7.9
2017-Aug-02 10:30N 45°43' W 124°05'4 8.0
2017-Aug-02 10:01N 45°39' W 124°05'4 7.8
2017-Aug-02 09:30N 45°35' W 124°04'4 7.7
2017-Aug-02 09:01N 45°31' W 124°05'4 7.8
2017-Aug-02 08:31N 45°27' W 124°05'4 7.4
2017-Aug-02 08:00N 45°24' W 124°05'4 7.4
2017-Aug-02 07:31N 45°20' W 124°05'4 7.4
2017-Aug-02 07:01N 45°16' W 124°05'3 6.8
2017-Aug-02 06:30N 45°13' W 124°05'4 7.3
2017-Aug-02 06:00N 45°09' W 124°05'4 7.5
2017-Aug-02 05:30N 45°05' W 124°05'4 7.3
2017-Aug-02 05:00N 45°02' W 124°06'4 7.3
2017-Aug-02 04:31N 44°58' W 124°07'4 7.7
2017-Aug-02 04:00N 44°55' W 124°09'4 7.7
2017-Aug-02 03:30N 44°51' W 124°11'6 7.6
2017-Aug-02 02:44N 44°45' W 124°14'2 7.8
2017-Aug-02 02:29N 44°44' W 124°15'4 7.6
2017-Aug-02 01:58N 44°40' W 124°16'  
Track history (hours):
 
Tides and Currents Weather Stations Pressure Air Temp Water Temp Dewpoint Dewpoint Depression Visibility Wind Speed Wind Dir Waves Ship Positions

Jack Brusco

Owner: Brusco Tug & Barge, Inc., Longview, WA. More information available from US FCC via Universal Licensing System and Coast Guard Vessel Documentation Center.

Last reported at 2017-Aug-11 16:34 UTC. Time now 2017-Sep-21 17:45 UTC.
Position N 46°12' W 123°23'.
Warning: this ship's position is 41 days out of date.

Length 36 m; draft 5.2 m.

Type: Tug. MMSI: 3699086.

Date/timePositionNaut miles runAvg speedWind from/ knotsBaromVisibWave heightAir tempDewpointWater temp
2017-Aug-11 16:34N 46°12' W 123°23'0 0.0
2017-Aug-11 16:30N 46°12' W 123°23'0 0.1
2017-Aug-11 16:01N 46°12' W 123°23'  
2017-Aug-02 21:46N 46°12' W 123°23'0 0.0
2017-Aug-02 21:31N 46°12' W 123°23'0 0.0
2017-Aug-02 21:01N 46°12' W 123°23'0 0.0
2017-Aug-02 20:31N 46°12' W 123°23'0 0.1
2017-Aug-02 20:01N 46°12' W 123°23'0 0.0
2017-Aug-02 19:30N 46°12' W 123°23'0 0.1
2017-Aug-02 19:00N 46°12' W 123°23'0 0.0
2017-Aug-02 18:30N 46°12' W 123°23'1 2.4
2017-Aug-02 18:01N 46°13' W 123°25'4 8.1
2017-Aug-02 17:30N 46°16' W 123°28'510.0
2017-Aug-02 17:01N 46°15' W 123°35'5 9.3
2017-Aug-02 16:31N 46°15' W 123°42'510.4
2017-Aug-02 16:01N 46°12' W 123°49'5 9.3
2017-Aug-02 15:30N 46°12' W 123°55'510.9
2017-Aug-02 15:01N 46°15' W 124°01'8 7.8
2017-Aug-02 14:01N 46°11' W 124°11'3 5.8
2017-Aug-02 13:31N 46°08' W 124°10'5 9.1
2017-Aug-02 13:01N 46°04' W 124°09'5 9.2
2017-Aug-02 12:31N 45°59' W 124°08'4 8.5
2017-Aug-02 12:01N 45°55' W 124°06'4 8.2
2017-Aug-02 11:31N 45°51' W 124°06'4 8.0
2017-Aug-02 11:00N 45°47' W 124°05'4 7.9
2017-Aug-02 10:30N 45°43' W 124°05'4 8.0
2017-Aug-02 10:01N 45°39' W 124°05'4 7.8
2017-Aug-02 09:30N 45°35' W 124°04'4 7.7
2017-Aug-02 09:01N 45°31' W 124°05'4 7.8
2017-Aug-02 08:31N 45°27' W 124°05'4 7.4
2017-Aug-02 08:00N 45°24' W 124°05'4 7.4
2017-Aug-02 07:31N 45°20' W 124°05'4 7.4
2017-Aug-02 07:01N 45°16' W 124°05'3 6.8
2017-Aug-02 06:30N 45°13' W 124°05'4 7.3
2017-Aug-02 06:00N 45°09' W 124°05'4 7.5
2017-Aug-02 05:30N 45°05' W 124°05'4 7.3
2017-Aug-02 05:00N 45°02' W 124°06'4 7.3
2017-Aug-02 04:31N 44°58' W 124°07'4 7.7
2017-Aug-02 04:00N 44°55' W 124°09'4 7.7
2017-Aug-02 03:30N 44°51' W 124°11'6 7.6
2017-Aug-02 02:44N 44°45' W 124°14'2 7.8
2017-Aug-02 02:29N 44°44' W 124°15'4 7.6
2017-Aug-02 01:58N 44°40' W 124°16'  

Dump ship's entire track history